Rockwood, Pennsylvania
Current Conditions -  °F | °C
As of 9:55 PM on Thursday 27 Nov 2014 (Local Time) from K2G9 Reporting Station
Light Snow Light Snow  
Wind Chill: 12°   Ceiling: 1400
Heat Index: 25°   Visibility: 2.5mi
Dew Point: 21°   Wind: 15mph
Humidity: 86%   Direction: 280°W
Pressure: 30.12"   Gusts: 18mph
Location:  39.92°N, 79.15°W
Report Text: K2G9 280255Z AUTO 28013G16KT 2 1/2SM -SN OVC014 M04/M06 A3012 RMK AO2 VIS 1 3/4V4
Loading
Personal Weather Stations






























Interactive Weather Map New forecast layout! Learn more

10-Day Weather Forecast

Advertisements
Track Severe Weather on mobile